Terminal Aerodrome Forecast
Issued by NWS Sterling, VA

Current Version | Previous Version | Text Only | Print | Product List | Glossary Off
Versions: 1 2 3 4 5 6 7 8 9 10 11 12 13 14 15 16 17 18 19 20 21 22 23 24 25 26 27

000
FTUS41 KLWX 300827 AAA
TAFDCA
TAF AMD
KDCA 300827Z 3008/3106 19010KT P6SM BKN050
      TEMPO 3008/3009 6SM -RASNPL OVC040
     FM301000 20011KT P6SM -RASNPL BKN050
     FM301200 20010KT P6SM BKN050
     FM301500 24011G18KT P6SM SCT050
     FM301800 28013G20KT P6SM SCT050
     FM310000 29009KT P6SM FEW050=

USA.gov is the U.S. government's official web portal to all federal, state and local government web resources and services.